Time;durP1;ratioP1;P1;durP2;ratioP2;P2;SDS_P1;SDS_P2;PMS_P1;PMS_P2;Temp;Humidity;BMP_temperature;BMP_pressure;BME280_temperature;BME280_humidity;BME280_pressure;Samples;Min_cycle;Max_cycle;Signal;HPM_P1;HPM_P2
2023/05/06 00:02:01;;;;;;;4.78;2.22;;;16.20;99.90;;;;;;5107468;28;20199;-74
2023/05/06 00:04:34;;;;;;;4.57;2.03;;;16.40;99.90;;;;;;5112903;28;20262;-75
2023/05/06 00:07:05;;;;;;;9.07;2.60;;;16.40;99.90;;;;;;5084137;28;20533;-74
2023/05/06 00:09:36;;;;;;;8.93;2.30;;;16.60;99.90;;;;;;5090744;28;20203;-75
2023/05/06 00:12:09;;;;;;;4.88;1.95;;;16.70;99.90;;;;;;5088033;28;20189;-74
2023/05/06 00:14:40;;;;;;;3.65;1.90;;;16.90;99.90;;;;;;5094176;28;20199;-74
2023/05/06 00:17:11;;;;;;;6.10;2.30;;;17.00;99.90;;;;;;5091355;28;20195;-74
2023/05/06 00:19:43;;;;;;;6.57;2.10;;;17.00;99.90;;;;;;5092456;28;20201;-75
2023/05/06 00:22:14;;;;;;;3.97;1.50;;;17.20;99.90;;;;;;5091977;28;20218;-75
2023/05/06 00:24:45;;;;;;;5.78;1.60;;;17.30;99.90;;;;;;5083255;28;20672;-74
2023/05/06 00:27:18;;;;;;;4.22;1.80;;;17.40;99.90;;;;;;5075203;28;20752;-75
2023/05/06 00:29:49;;;;;;;3.33;1.50;;;17.50;99.90;;;;;;5075588;28;20193;-74
2023/05/06 00:32:21;;;;;;;2.00;1.40;;;17.60;99.90;;;;;;5079897;28;20196;-75
2023/05/06 00:34:52;;;;;;;4.95;1.55;;;17.70;99.90;;;;;;5116278;28;20203;-75
2023/05/06 00:37:23;;;;;;;2.95;1.30;;;17.80;99.90;;;;;;5075730;28;20189;-74
2023/05/06 00:39:54;;;;;;;2.35;1.30;;;17.90;99.90;;;;;;5075635;28;20189;-74
2023/05/06 00:42:27;;;;;;;4.15;1.25;;;18.00;99.90;;;;;;5075815;28;20700;-75
2023/05/06 00:44:58;;;;;;;2.42;1.15;;;18.00;99.90;;;;;;5093286;28;20195;-75
2023/05/06 00:47:29;;;;;;;2.60;1.00;;;18.10;99.90;;;;;;5116279;28;20188;-74
2023/05/06 00:50:00;;;;;;;3.67;1.00;;;18.20;99.90;;;;;;5105168;27;20204;-74
2023/05/06 00:52:32;;;;;;;4.53;1.25;;;18.30;99.90;;;;;;5095634;28;20192;-75
2023/05/06 00:55:03;;;;;;;2.63;1.20;;;18.40;99.90;;;;;;5095632;28;20185;-75
2023/05/06 00:57:36;;;;;;;4.30;1.00;;;18.50;99.90;;;;;;5092900;28;20651;-73
2023/05/06 01:00:08;;;;;;;2.15;1.00;;;18.50;99.90;;;;;;5096240;28;20211;-75
2023/05/06 01:02:39;;;;;;;3.50;1.10;;;18.50;99.90;;;;;;5099872;28;20690;-74
2023/05/06 01:05:11;;;;;;;3.80;1.30;;;18.60;99.90;;;;;;5090157;28;20192;-75
2023/05/06 01:07:48;;;;;;;1.33;0.80;;;18.60;99.90;;;;;;5092527;28;20656;-75
2023/05/06 01:10:25;;;;;;;3.20;1.00;;;18.70;99.90;;;;;;5080869;28;20197;-74
2023/05/06 01:13:05;;;;;;;4.97;1.33;;;18.80;99.90;;;;;;5079030;28;20199;-74
2023/05/06 01:15:40;;;;;;;3.05;1.10;;;18.80;99.90;;;;;;5084076;28;20674;-74
2023/05/06 01:18:15;;;;;;;2.90;1.10;;;18.90;99.90;;;;;;5080200;28;20196;-74
2023/05/06 01:20:49;;;;;;;3.80;1.33;;;19.00;99.90;;;;;;5095180;28;20206;-74
2023/05/06 01:23:23;;;;;;;2.97;1.20;;;19.20;99.90;;;;;;5115041;28;20190;-74
2023/05/06 01:25:54;;;;;;;4.40;1.20;;;19.30;99.90;;;;;;5115299;28;20212;-74
2023/05/06 01:28:25;;;;;;;3.03;1.10;;;19.30;99.90;;;;;;5103664;27;20192;-74
2023/05/06 01:31:01;;;;;;;5.28;1.15;;;19.40;99.90;;;;;;5085388;28;20188;-74
2023/05/06 01:33:38;;;;;;;2.83;1.13;;;19.50;99.90;;;;;;5088984;28;20208;-74
2023/05/06 01:36:17;;;;;;;2.92;1.17;;;19.50;99.90;;;;;;5081796;28;20183;-74
2023/05/06 01:38:56;;;;;;;3.58;1.30;;;19.50;99.90;;;;;;5115086;27;20201;-74
2023/05/06 01:41:29;;;;;;;4.55;1.00;;;19.70;99.90;;;;;;5114948;28;20233;-74
2023/05/06 01:44:02;;;;;;;4.57;1.27;;;19.80;99.90;;;;;;5115089;28;20194;-74
2023/05/06 01:46:34;;;;;;;3.25;1.13;;;20.00;99.90;;;;;;5114866;28;20215;-74
2023/05/06 01:49:10;;;;;;;1.52;1.02;;;20.00;99.90;;;;;;5114091;28;20566;-74
2023/05/06 01:51:41;;;;;;;2.80;0.98;;;19.90;99.90;;;;;;5113125;28;20275;-74
2023/05/06 01:54:14;;;;;;;3.97;1.08;;;19.80;99.90;;;;;;5115047;28;20196;-74
2023/05/06 01:56:48;;;;;;;3.17;0.90;;;19.80;99.90;;;;;;5114741;28;20206;-74
2023/05/06 01:59:20;;;;;;;3.03;1.08;;;19.80;99.90;;;;;;5103406;28;20644;-74
2023/05/06 02:01:51;;;;;;;4.40;1.40;;;19.80;99.90;;;;;;5094397;28;20188;-74
2023/05/06 02:04:22;;;;;;;2.10;0.85;;;19.90;99.90;;;;;;5094071;28;20242;-74
2023/05/06 02:06:53;;;;;;;1.92;1.08;;;19.90;99.90;;;;;;5093901;28;20216;-75
2023/05/06 02:09:26;;;;;;;3.92;1.10;;;20.00;99.90;;;;;;5085815;28;20193;-74
2023/05/06 02:11:57;;;;;;;2.03;1.00;;;20.20;99.90;;;;;;5083786;28;20557;-74
2023/05/06 02:14:28;;;;;;;3.85;1.10;;;20.30;99.90;;;;;;5103402;28;20204;-75
2023/05/06 02:16:59;;;;;;;2.28;0.90;;;20.30;99.90;;;;;;5099121;28;20196;-74
2023/05/06 02:19:31;;;;;;;5.63;1.27;;;20.20;99.90;;;;;;5093360;28;20198;-74
2023/05/06 02:22:02;;;;;;;2.25;1.00;;;20.20;99.90;;;;;;5095022;28;20203;-75
2023/05/06 02:24:35;;;;;;;3.80;1.05;;;20.20;99.90;;;;;;5092075;28;20200;-74
2023/05/06 02:27:06;;;;;;;2.78;1.30;;;20.20;99.90;;;;;;5093754;28;20220;-74
2023/05/06 02:29:37;;;;;;;5.18;1.10;;;20.30;99.90;;;;;;5092289;28;20192;-74
2023/05/06 02:32:09;;;;;;;2.38;0.93;;;20.40;99.90;;;;;;5094624;28;20555;-74
2023/05/06 02:34:40;;;;;;;2.38;1.00;;;20.20;99.90;;;;;;5113838;28;20195;-75
2023/05/06 02:37:11;;;;;;;3.17;1.10;;;20.10;99.90;;;;;;5114042;28;20183;-75
2023/05/06 02:39:44;;;;;;;1.38;1.02;;;20.20;99.90;;;;;;5113941;28;20222;-74
2023/05/06 02:42:17;;;;;;;2.50;1.10;;;20.30;99.90;;;;;;5113516;28;20241;-73
2023/05/06 02:44:48;;;;;;;3.03;0.98;;;20.50;99.90;;;;;;5089015;28;20196;-75
2023/05/06 02:47:19;;;;;;;3.70;1.00;;;20.50;99.90;;;;;;5093553;28;20216;-74
2023/05/06 02:49:50;;;;;;;5.30;1.33;;;20.60;99.90;;;;;;5093544;28;20188;-75
2023/05/06 02:52:21;;;;;;;7.30;1.13;;;20.50;99.90;;;;;;5093323;28;20192;-75
2023/05/06 02:54:54;;;;;;;2.97;1.27;;;20.50;99.90;;;;;;5090014;28;20680;-75
2023/05/06 02:57:25;;;;;;;2.08;0.90;;;20.60;99.90;;;;;;5093038;28;20188;-74
2023/05/06 02:59:56;;;;;;;1.45;0.90;;;20.60;99.90;;;;;;5096139;28;20191;-75
2023/05/06 03:02:27;;;;;;;3.35;1.00;;;20.70;99.90;;;;;;5104985;28;20199;-74
2023/05/06 03:04:58;;;;;;;2.38;0.90;;;20.70;99.90;;;;;;5113616;28;20187;-74
2023/05/06 03:07:30;;;;;;;2.15;1.00;;;20.80;99.90;;;;;;5109366;28;20218;-75
2023/05/06 03:10:03;;;;;;;5.22;0.98;;;20.80;99.90;;;;;;5112526;28;20659;-74
2023/05/06 03:12:34;;;;;;;2.92;1.10;;;20.80;99.90;;;;;;5090296;28;20662;-76
2023/05/06 03:15:05;;;;;;;4.30;1.13;;;20.70;99.90;;;;;;5098947;28;20206;-73
2023/05/06 03:17:36;;;;;;;1.52;1.00;;;20.70;99.90;;;;;;5108378;28;20578;-73
2023/05/06 03:20:08;;;;;;;1.92;0.80;;;20.90;99.90;;;;;;5085538;28;20284;-75
2023/05/06 03:22:41;;;;;;;2.25;1.00;;;20.90;99.90;;;;;;5095351;28;20197;-76
2023/05/06 03:25:14;;;;;;;1.95;0.95;;;21.00;99.90;;;;;;5092521;28;20207;-74
2023/05/06 03:27:45;;;;;;;2.85;1.05;;;21.10;99.90;;;;;;5092272;28;20219;-75
2023/05/06 03:30:16;;;;;;;2.15;0.88;;;21.00;99.90;;;;;;5091781;28;20196;-73
2023/05/06 03:32:49;;;;;;;2.20;0.90;;;20.90;99.90;;;;;;5096865;28;20549;-75
2023/05/06 03:35:20;;;;;;;3.13;1.10;;;20.90;99.90;;;;;;5092687;28;20184;-73
2023/05/06 03:37:51;;;;;;;1.83;1.10;;;20.90;99.90;;;;;;5106975;28;20187;-74
2023/05/06 03:40:24;;;;;;;2.17;0.98;;;21.00;99.90;;;;;;5113896;28;20187;-74
2023/05/06 03:42:55;;;;;;;2.88;1.13;;;20.80;99.90;;;;;;5113227;28;20192;-74
2023/05/06 03:45:26;;;;;;;2.33;0.80;;;20.80;99.90;;;;;;5072662;28;20189;-74
2023/05/06 03:47:57;;;;;;;3.90;1.10;;;20.70;99.90;;;;;;5077800;28;20210;-74
2023/05/06 03:50:28;;;;;;;2.65;0.90;;;20.70;99.90;;;;;;5091861;28;20196;-74
2023/05/06 03:53:00;;;;;;;2.92;1.10;;;20.80;99.90;;;;;;5093942;28;20201;-74
2023/05/06 03:55:33;;;;;;;2.40;0.90;;;20.80;99.90;;;;;;5091129;28;20204;-74
2023/05/06 03:58:04;;;;;;;2.25;0.98;;;20.90;99.90;;;;;;5081480;28;20197;-74
2023/05/06 04:00:36;;;;;;;2.45;1.00;;;21.00;99.90;;;;;;5080785;28;20205;-74
2023/05/06 04:03:07;;;;;;;2.85;1.00;;;21.00;99.90;;;;;;5101933;28;20228;-75
2023/05/06 04:05:38;;;;;;;2.85;1.00;;;20.90;99.90;;;;;;5091485;28;20307;-74
2023/05/06 04:08:09;;;;;;;1.98;1.00;;;20.90;99.90;;;;;;5087706;28;20229;-74
2023/05/06 04:10:44;;;;;;;2.80;1.20;;;20.90;99.90;;;;;;5083993;28;20204;-74
2023/05/06 04:13:16;;;;;;;2.70;0.90;;;20.90;99.90;;;;;;5086889;28;20192;-74
2023/05/06 04:15:47;;;;;;;3.92;1.02;;;21.00;99.90;;;;;;5081502;28;20244;-74
2023/05/06 04:18:18;;;;;;;1.95;1.10;;;21.00;99.90;;;;;;5077379;28;20199;-75
2023/05/06 04:20:50;;;;;;;1.60;0.90;;;21.00;99.90;;;;;;5078390;28;20196;-74
2023/05/06 04:23:21;;;;;;;2.67;1.10;;;21.00;99.90;;;;;;5075958;28;20211;-74
2023/05/06 04:25:54;;;;;;;1.67;0.77;;;21.00;99.90;;;;;;5075910;28;20193;-74
2023/05/06 04:28:26;;;;;;;2.70;0.90;;;20.90;99.90;;;;;;5101560;28;20188;-76
2023/05/06 04:30:57;;;;;;;2.80;1.08;;;21.00;99.90;;;;;;5090326;28;20197;-75
2023/05/06 04:33:28;;;;;;;1.17;0.80;;;21.00;99.90;;;;;;5081423;28;20614;-74
2023/05/06 04:35:59;;;;;;;1.75;0.77;;;20.90;99.90;;;;;;5115421;28;20192;-74
2023/05/06 04:38:30;;;;;;;3.08;0.90;;;20.90;99.90;;;;;;5108962;27;20188;-74
2023/05/06 04:41:04;;;;;;;1.60;0.90;;;20.90;99.90;;;;;;5085922;28;20252;-75
2023/05/06 04:43:36;;;;;;;1.80;0.98;;;21.00;99.90;;;;;;5095746;28;20224;-74
2023/05/06 04:46:07;;;;;;;2.35;0.93;;;21.00;99.90;;;;;;5093488;28;20555;-75
2023/05/06 04:48:39;;;;;;;1.88;1.10;;;21.00;99.90;;;;;;5097620;28;20196;-74
2023/05/06 04:51:10;;;;;;;3.67;0.90;;;21.00;99.90;;;;;;5101760;27;20200;-75
2023/05/06 04:53:41;;;;;;;2.15;0.75;;;21.00;99.90;;;;;;5098882;28;20187;-75
2023/05/06 04:56:15;;;;;;;3.58;1.23;;;21.00;99.90;;;;;;5080170;28;20193;-74
2023/05/06 04:58:46;;;;;;;1.83;0.90;;;21.00;99.90;;;;;;5114876;28;20191;-74
2023/05/06 05:01:18;;;;;;;2.50;0.80;;;21.00;99.90;;;;;;5115321;28;20210;-74
2023/05/06 05:03:49;;;;;;;3.20;1.10;;;21.00;99.90;;;;;;5115850;27;20242;-75
2023/05/06 05:06:20;;;;;;;1.77;0.85;;;21.00;99.90;;;;;;5116187;28;20194;-75
2023/05/06 05:08:51;;;;;;;3.05;0.88;;;21.00;99.90;;;;;;5115894;28;20195;-75
2023/05/06 05:11:24;;;;;;;2.33;0.80;;;21.00;99.90;;;;;;5115521;28;20192;-75
2023/05/06 05:13:55;;;;;;;3.45;0.90;;;21.00;99.90;;;;;;5115611;28;20188;-75
2023/05/06 05:16:26;;;;;;;4.88;1.08;;;21.00;99.90;;;;;;5115588;28;20195;-75
2023/05/06 05:18:57;;;;;;;2.05;0.75;;;21.00;99.90;;;;;;5115532;28;20198;-76
2023/05/06 05:21:29;;;;;;;3.53;0.80;;;21.00;99.90;;;;;;5115487;27;20670;-75
2023/05/06 05:24:00;;;;;;;2.22;1.10;;;21.00;99.90;;;;;;5115408;28;20188;-77
2023/05/06 05:26:33;;;;;;;2.10;1.05;;;20.90;99.90;;;;;;5115150;28;20192;-75
2023/05/06 05:29:05;;;;;;;1.75;0.80;;;20.90;99.90;;;;;;5111784;28;20188;-75
2023/05/06 05:31:36;;;;;;;1.73;0.85;;;21.00;99.90;;;;;;5094970;28;20199;-75
2023/05/06 05:34:07;;;;;;;1.42;0.80;;;21.00;99.90;;;;;;5094851;28;20192;-75
2023/05/06 05:36:39;;;;;;;1.90;0.90;;;21.00;99.90;;;;;;5094801;28;20192;-76
2023/05/06 05:39:10;;;;;;;3.53;1.10;;;20.90;99.90;;;;;;5094796;28;20195;-75
2023/05/06 05:41:43;;;;;;;3.78;0.93;;;20.90;99.90;;;;;;5094644;28;20691;-75
2023/05/06 05:44:14;;;;;;;2.95;1.08;;;20.80;99.90;;;;;;5094615;28;20647;-76
2023/05/06 05:46:45;;;;;;;2.90;1.10;;;20.60;99.90;;;;;;5094542;28;20218;-76
2023/05/06 05:49:16;;;;;;;4.47;1.35;;;20.50;99.90;;;;;;5094623;28;20184;-75
2023/05/06 05:51:47;;;;;;;2.05;1.15;;;20.30;99.90;;;;;;5095068;28;20199;-75
2023/05/06 05:54:18;;;;;;;1.98;1.20;;;20.20;99.90;;;;;;5094234;28;20191;-75
2023/05/06 05:56:51;;;;;;;1.83;1.15;;;20.20;99.90;;;;;;5094450;28;20192;-75
2023/05/06 05:59:22;;;;;;;2.38;1.17;;;20.00;99.90;;;;;;5094361;28;20192;-73
2023/05/06 06:01:53;;;;;;;2.78;1.35;;;20.00;99.90;;;;;;5094461;28;20188;-73
2023/05/06 06:04:24;;;;;;;1.85;1.10;;;19.90;99.90;;;;;;5094246;28;20235;-73
2023/05/06 06:06:56;;;;;;;2.72;1.30;;;19.80;99.90;;;;;;5094123;28;20223;-72
2023/05/06 06:09:27;;;;;;;3.67;1.50;;;19.80;99.90;;;;;;5094269;28;20192;-73
2023/05/06 06:12:00;;;;;;;1.88;1.20;;;19.70;99.90;;;;;;5095087;28;20188;-74
2023/05/06 06:14:31;;;;;;;2.17;1.15;;;19.60;99.90;;;;;;5093433;28;20216;-72
2023/05/06 06:17:03;;;;;;;2.95;1.20;;;19.60;99.90;;;;;;5094011;28;20204;-72
2023/05/06 06:19:34;;;;;;;3.83;1.33;;;19.50;99.90;;;;;;5093893;28;20193;-73
2023/05/06 06:22:05;;;;;;;2.88;1.40;;;19.50;99.90;;;;;;5093836;28;20199;-72
2023/05/06 06:24:36;;;;;;;2.58;1.40;;;19.40;99.90;;;;;;5093832;28;20189;-73
2023/05/06 06:27:09;;;;;;;3.53;1.40;;;19.30;99.90;;;;;;5093610;28;20586;-73
2023/05/06 06:29:40;;;;;;;3.38;1.50;;;19.30;99.90;;;;;;5093716;28;20280;-73
2023/05/06 06:32:11;;;;;;;2.90;1.30;;;19.20;99.90;;;;;;5094011;28;20196;-73
2023/05/06 06:34:43;;;;;;;3.83;1.50;;;19.10;99.90;;;;;;5093740;28;20192;-73
2023/05/06 06:37:14;;;;;;;2.58;1.23;;;19.10;99.90;;;;;;5093805;28;20196;-72
2023/05/06 06:39:45;;;;;;;2.10;1.20;;;19.00;99.90;;;;;;5093739;28;20199;-73
2023/05/06 06:42:18;;;;;;;2.40;1.17;;;19.00;99.90;;;;;;5090632;28;20228;-73
2023/05/06 06:44:49;;;;;;;4.30;1.48;;;18.90;99.90;;;;;;5091174;28;20196;-73
2023/05/06 06:47:20;;;;;;;4.80;1.58;;;18.90;99.90;;;;;;5098390;28;20212;-72
2023/05/06 06:49:51;;;;;;;3.40;1.50;;;18.80;99.90;;;;;;5092282;28;20196;-73
2023/05/06 06:52:22;;;;;;;2.75;1.15;;;18.70;99.90;;;;;;5079010;28;20211;-73
2023/05/06 06:54:53;;;;;;;3.08;1.17;;;18.70;99.90;;;;;;5089228;28;20188;-73
2023/05/06 06:57:27;;;;;;;3.70;1.40;;;18.60;99.90;;;;;;5090154;28;20212;-73
2023/05/06 06:59:58;;;;;;;2.60;1.30;;;18.60;99.90;;;;;;5078880;28;20214;-73
2023/05/06 07:02:29;;;;;;;3.90;1.30;;;18.50;99.90;;;;;;5077149;28;20193;-73
2023/05/06 07:05:00;;;;;;;3.17;1.50;;;18.40;99.90;;;;;;5074445;28;20219;-72
2023/05/06 07:07:31;;;;;;;3.13;1.55;;;18.30;99.90;;;;;;5090485;28;20216;-73
2023/05/06 07:10:02;;;;;;;2.53;1.40;;;18.20;99.90;;;;;;5090796;28;20191;-74
2023/05/06 07:12:35;;;;;;;2.28;1.50;;;18.20;99.90;;;;;;5092287;28;20196;-75
2023/05/06 07:15:07;;;;;;;4.95;1.90;;;18.10;99.90;;;;;;5088638;28;20553;-75
2023/05/06 07:17:38;;;;;;;4.15;2.00;;;18.10;99.90;;;;;;5088390;28;20203;-76
2023/05/06 07:20:10;;;;;;;4.70;2.60;;;18.00;99.90;;;;;;5100972;28;20571;-75
2023/05/06 07:22:42;;;;;;;6.75;2.38;;;18.00;99.90;;;;;;5089344;28;20211;-75
2023/05/06 07:25:13;;;;;;;5.13;2.40;;;17.90;99.90;;;;;;5081718;28;20192;-75
2023/05/06 07:27:46;;;;;;;5.38;2.45;;;17.90;99.90;;;;;;5082746;28;20220;-75
2023/05/06 07:30:18;;;;;;;4.22;2.65;;;17.70;99.90;;;;;;5094828;28;20192;-75
2023/05/06 07:32:49;;;;;;;5.40;3.00;;;17.70;99.90;;;;;;5080698;28;20620;-75
2023/05/06 07:35:21;;;;;;;6.70;2.90;;;17.70;99.90;;;;;;5096256;28;20192;-75
2023/05/06 07:37:52;;;;;;;5.25;3.05;;;17.70;99.90;;;;;;5087972;28;20671;-75
2023/05/06 07:40:23;;;;;;;6.43;3.15;;;17.60;99.90;;;;;;5088957;28;20221;-75
2023/05/06 07:42:56;;;;;;;4.57;2.65;;;17.60;99.90;;;;;;5079658;28;20234;-75
2023/05/06 07:45:28;;;;;;;4.05;2.85;;;17.60;99.90;;;;;;5091571;28;20533;-75
2023/05/06 07:48:00;;;;;;;4.57;2.90;;;17.50;99.90;;;;;;5090817;28;20235;-75
2023/05/06 07:50:32;;;;;;;4.53;2.50;;;17.50;99.90;;;;;;5090248;28;20192;-75
2023/05/06 07:53:03;;;;;;;5.88;2.63;;;17.40;99.90;;;;;;5086101;28;20192;-75
2023/05/06 07:55:36;;;;;;;4.18;2.60;;;17.40;99.90;;;;;;5099270;28;20192;-75
2023/05/06 07:58:09;;;;;;;6.05;2.97;;;17.30;99.90;;;;;;5094357;28;20196;-75
2023/05/06 08:00:40;;;;;;;6.60;3.35;;;17.30;99.90;;;;;;5082754;28;20557;-74
2023/05/06 08:03:11;;;;;;;7.50;3.67;;;17.20;99.90;;;;;;5091839;28;20683;-75
2023/05/06 08:05:42;;;;;;;8.70;4.68;;;17.20;99.90;;;;;;5088401;28;20206;-74
2023/05/06 08:08:13;;;;;;;9.25;4.90;;;17.20;99.90;;;;;;5087340;28;20216;-75
2023/05/06 08:10:46;;;;;;;8.05;4.57;;;17.10;99.90;;;;;;5095594;28;20631;-75
2023/05/06 08:13:19;;;;;;;8.38;4.43;;;17.10;99.90;;;;;;5090724;28;20556;-74
2023/05/06 08:15:51;;;;;;;7.70;4.50;;;17.10;99.90;;;;;;5097827;28;20195;-75
2023/05/06 08:18:22;;;;;;;8.88;4.28;;;17.00;99.90;;;;;;5093884;28;20669;-74
2023/05/06 08:20:53;;;;;;;7.78;4.10;;;17.00;99.90;;;;;;5099240;28;20192;-74
2023/05/06 08:23:24;;;;;;;7.55;4.10;;;17.00;99.90;;;;;;5092629;28;20216;-74
2023/05/06 08:25:55;;;;;;;10.50;3.90;;;17.00;99.90;;;;;;5103216;28;20203;-75
2023/05/06 08:28:28;;;;;;;8.88;4.00;;;16.90;99.90;;;;;;5075732;28;20216;-75
2023/05/06 08:31:01;;;;;;;8.27;4.07;;;16.90;99.90;;;;;;5094903;28;20197;-75
2023/05/06 08:33:32;;;;;;;8.57;4.32;;;16.80;99.90;;;;;;5091428;28;20539;-74
2023/05/06 08:36:03;;;;;;;11.05;4.60;;;16.80;99.90;;;;;;5089093;28;20195;-75
2023/05/06 08:38:34;;;;;;;8.18;4.45;;;16.80;99.90;;;;;;5081985;28;20201;-75
2023/05/06 08:41:10;;;;;;;7.50;4.30;;;16.80;99.90;;;;;;5093121;28;20224;-74
2023/05/06 08:43:48;;;;;;;9.50;3.95;;;16.70;99.90;;;;;;5092942;28;20570;-75
2023/05/06 08:46:19;;;;;;;10.05;4.22;;;16.70;99.90;;;;;;5094845;28;20211;-75
2023/05/06 08:48:50;;;;;;;7.70;4.15;;;16.60;99.90;;;;;;5093939;28;20217;-75
2023/05/06 08:51:23;;;;;;;11.18;4.47;;;16.60;99.90;;;;;;5085696;28;20301;-75
2023/05/06 08:53:56;;;;;;;8.10;4.57;;;16.50;99.90;;;;;;5093485;28;20274;-74
2023/05/06 08:56:31;;;;;;;8.10;4.40;;;16.50;99.90;;;;;;5095356;28;20647;-74
2023/05/06 08:59:07;;;;;;;9.85;5.22;;;16.40;99.90;;;;;;5082497;28;20203;-75
2023/05/06 09:01:39;;;;;;;10.43;5.65;;;16.40;99.90;;;;;;5091836;28;20656;-74
2023/05/06 09:04:10;;;;;;;10.18;5.15;;;16.30;99.90;;;;;;5089970;28;20224;-75
2023/05/06 09:06:41;;;;;;;9.48;5.45;;;16.30;99.90;;;;;;5091321;28;20200;-74
2023/05/06 09:09:13;;;;;;;10.48;6.28;;;16.30;99.90;;;;;;5083800;28;20216;-74
2023/05/06 09:11:44;;;;;;;11.27;6.50;;;16.20;99.90;;;;;;5093810;28;20200;-75
2023/05/06 09:14:18;;;;;;;16.08;7.70;;;16.20;99.90;;;;;;5095317;28;20219;-74
2023/05/06 09:16:51;;;;;;;12.73;7.07;;;16.10;99.90;;;;;;5088516;28;20197;-75
2023/05/06 09:19:23;;;;;;;12.00;7.18;;;16.10;99.90;;;;;;5085362;28;20659;-74
2023/05/06 09:21:55;;;;;;;11.95;7.25;;;16.10;99.90;;;;;;5094001;28;20218;-75
2023/05/06 09:24:27;;;;;;;11.75;7.03;;;16.10;99.90;;;;;;5086983;28;20196;-75
2023/05/06 09:27:00;;;;;;;14.32;7.40;;;16.00;99.90;;;;;;5081432;28;20195;-74
2023/05/06 09:29:33;;;;;;;10.25;6.22;;;16.00;99.90;;;;;;5086993;28;20223;-74
2023/05/06 09:32:10;;;;;;;11.48;6.90;;;16.00;99.90;;;;;;5090793;28;20197;-74
2023/05/06 09:34:41;;;;;;;11.15;6.60;;;15.90;99.90;;;;;;5085041;28;20197;-74
2023/05/06 09:37:12;;;;;;;10.73;6.70;;;15.90;99.90;;;;;;5087257;28;20199;-75
2023/05/06 09:39:43;;;;;;;11.85;7.15;;;15.80;99.90;;;;;;5087958;28;20677;-74
2023/05/06 09:42:15;;;;;;;11.18;6.47;;;15.80;99.90;;;;;;5087854;28;20226;-75
2023/05/06 09:44:48;;;;;;;11.75;6.90;;;15.80;99.90;;;;;;5094186;28;20196;-75
2023/05/06 09:47:19;;;;;;;9.98;6.38;;;15.80;99.90;;;;;;5092852;28;20203;-75
2023/05/06 09:49:50;;;;;;;13.52;6.75;;;15.80;99.90;;;;;;5089709;28;20216;-75
2023/05/06 09:52:23;;;;;;;9.13;6.05;;;15.80;99.90;;;;;;5092325;28;20196;-75
2023/05/06 09:54:56;;;;;;;11.02;5.53;;;15.70;99.90;;;;;;5083388;28;20201;-75
2023/05/06 09:57:29;;;;;;;10.07;5.40;;;15.70;99.90;;;;;;5098262;28;20195;-75
2023/05/06 10:00:05;;;;;;;9.65;5.65;;;15.70;99.90;;;;;;5094590;28;20196;-75
2023/05/06 10:02:37;;;;;;;10.25;5.50;;;15.70;99.90;;;;;;5089816;28;20199;-76
2023/05/06 10:05:10;;;;;;;10.10;6.00;;;15.70;99.90;;;;;;5080162;28;21810;-75
2023/05/06 10:07:42;;;;;;;10.50;5.70;;;15.60;99.90;;;;;;5087013;28;20200;-74
2023/05/06 10:10:14;;;;;;;11.00;5.75;;;15.60;99.90;;;;;;5091618;28;20245;-74
2023/05/06 10:12:47;;;;;;;10.90;5.45;;;15.60;99.90;;;;;;5091823;28;20202;-75
2023/05/06 10:15:20;;;;;;;10.30;5.60;;;15.60;99.90;;;;;;5093092;28;20192;-76
2023/05/06 10:17:53;;;;;;;9.73;4.93;;;15.50;99.90;;;;;;5091094;28;20196;-75
2023/05/06 10:20:26;;;;;;;9.35;5.00;;;15.60;99.90;;;;;;5084863;28;20197;-75
2023/05/06 10:23:11;;;;;;;9.00;4.65;;;15.50;99.90;;;;;;5090346;28;20286;-75
2023/05/06 10:25:44;;;;;;;8.05;4.85;;;15.50;99.90;;;;;;5083412;28;20241;-74
2023/05/06 10:28:15;;;;;;;7.72;4.82;;;15.50;99.90;;;;;;5088648;28;20219;-75
2023/05/06 10:30:49;;;;;;;11.00;4.93;;;15.50;99.90;;;;;;5089753;28;20232;-75
2023/05/06 10:33:21;;;;;;;9.75;5.10;;;15.50;99.90;;;;;;5089157;28;20204;-75
2023/05/06 10:35:58;;;;;;;10.35;5.25;;;15.50;99.90;;;;;;5099877;28;20267;-75
2023/05/06 10:38:35;;;;;;;11.15;5.82;;;15.50;99.90;;;;;;5088914;28;20199;-75
2023/05/06 10:41:09;;;;;;;10.05;5.10;;;15.50;99.90;;;;;;5089036;28;20226;-76
2023/05/06 10:43:44;;;;;;;11.07;5.47;;;15.50;99.90;;;;;;5082847;28;20671;-75
2023/05/06 10:46:19;;;;;;;9.48;5.30;;;15.40;99.90;;;;;;5088317;28;20259;-75
2023/05/06 10:49:19;;;;;;;11.15;5.63;;;15.40;99.90;;;;;;5082388;28;20215;-75
2023/05/06 10:52:10;;;;;;;7.82;5.25;;;15.40;99.90;;;;;;5093532;28;20577;-75
2023/05/06 10:54:51;;;;;;;10.32;5.22;;;15.40;99.90;;;;;;5079476;28;20192;-75
2023/05/06 10:57:25;;;;;;;7.40;4.95;;;15.40;99.90;;;;;;5090767;28;20196;-75
2023/05/06 10:59:57;;;;;;;8.50;5.00;;;15.40;99.90;;;;;;5087035;28;20210;-75
2023/05/06 11:02:33;;;;;;;8.43;5.03;;;15.30;99.90;;;;;;5087344;28;20196;-75
2023/05/06 11:05:05;;;;;;;9.05;5.07;;;15.30;99.90;;;;;;5089263;28;20198;-75
2023/05/06 11:07:37;;;;;;;11.48;4.80;;;15.30;99.90;;;;;;5090550;28;20200;-74
2023/05/06 11:10:12;;;;;;;7.63;4.53;;;15.30;99.90;;;;;;5092510;28;20678;-76
2023/05/06 11:12:50;;;;;;;9.38;4.97;;;15.30;99.90;;;;;;5084957;28;20210;-76
2023/05/06 11:15:27;;;;;;;8.75;4.88;;;15.30;99.90;;;;;;5072756;28;20200;-75
2023/05/06 11:18:00;;;;;;;9.75;5.13;;;15.30;99.90;;;;;;5082576;28;20228;-75
2023/05/06 11:20:31;;;;;;;10.45;5.30;;;15.30;99.90;;;;;;5091280;28;20651;-75
2023/05/06 11:23:03;;;;;;;9.52;5.22;;;15.20;99.90;;;;;;5081810;28;20261;-75
2023/05/06 11:25:45;;;;;;;10.88;4.95;;;15.20;99.90;;;;;;5089519;28;20231;-75
2023/05/06 11:28:19;;;;;;;8.82;5.50;;;15.10;99.90;;;;;;5083894;28;20274;-75
2023/05/06 11:30:57;;;;;;;12.88;6.35;;;15.20;99.90;;;;;;5084864;28;20196;-75
2023/05/06 11:33:33;;;;;;;11.23;6.03;;;15.10;99.90;;;;;;5092735;28;20196;-75
2023/05/06 11:36:06;;;;;;;12.57;6.00;;;15.10;99.90;;;;;;5090456;28;20222;-75
2023/05/06 11:38:48;;;;;;;12.10;6.68;;;15.00;99.90;;;;;;5087828;28;20283;-75
2023/05/06 11:41:20;;;;;;;11.05;5.95;;;15.00;99.90;;;;;;5077216;28;20228;-75
2023/05/06 11:43:55;;;;;;;11.40;6.13;;;14.90;99.90;;;;;;5083442;28;20205;-75
2023/05/06 11:46:31;;;;;;;10.63;6.53;;;14.90;99.90;;;;;;5091729;28;20559;-75
2023/05/06 11:49:04;;;;;;;13.93;6.75;;;14.80;99.90;;;;;;5092726;28;20219;-74
2023/05/06 11:51:35;;;;;;;12.40;6.45;;;14.70;99.90;;;;;;5092860;28;20207;-75
2023/05/06 11:54:10;;;;;;;11.27;6.40;;;14.70;99.90;;;;;;5082700;28;20273;-75
2023/05/06 11:56:49;;;;;;;10.75;6.35;;;14.70;99.90;;;;;;5090600;28;20207;-75
2023/05/06 11:59:20;;;;;;;11.82;7.00;;;14.60;99.90;;;;;;5082166;28;20566;-75
2023/05/06 12:01:51;;;;;;;13.75;7.22;;;14.60;99.90;;;;;;5090611;28;20192;-74
2023/05/06 12:04:24;;;;;;;12.73;6.82;;;14.50;99.90;;;;;;5103623;28;20253;-75
2023/05/06 12:06:56;;;;;;;13.55;7.50;;;14.50;99.90;;;;;;5082214;28;20199;-75
2023/05/06 12:09:28;;;;;;;13.80;7.47;;;14.50;99.90;;;;;;5091283;28;20222;-75
2023/05/06 12:11:59;;;;;;;15.32;7.78;;;14.50;99.90;;;;;;5089494;28;20191;-75
2023/05/06 12:14:31;;;;;;;13.70;7.95;;;14.40;99.90;;;;;;5095654;28;20208;-75
2023/05/06 12:17:02;;;;;;;15.85;8.23;;;14.40;99.90;;;;;;5096402;28;20196;-74
2023/05/06 12:19:35;;;;;;;15.98;9.00;;;14.40;99.90;;;;;;5092474;28;20648;-75
2023/05/06 12:22:25;;;;;;;16.42;9.30;;;14.30;99.90;;;;;;5085200;28;20192;-74
2023/05/06 12:24:56;;;;;;;16.02;8.90;;;14.40;99.90;;;;;;5094918;28;20204;-75
2023/05/06 12:27:35;;;;;;;15.45;9.00;;;14.40;99.90;;;;;;5085097;28;20193;-74
2023/05/06 12:30:07;;;;;;;16.23;8.70;;;14.40;99.90;;;;;;5086988;28;20216;-74
2023/05/06 12:32:57;;;;;;;15.23;8.32;;;14.40;99.90;;;;;;5092072;28;20196;-74
2023/05/06 12:35:31;;;;;;;18.10;9.32;;;14.40;99.90;;;;;;5095851;28;20200;-74
2023/05/06 12:38:13;;;;;;;14.77;8.63;;;14.40;99.90;;;;;;5096124;28;20206;-74
2023/05/06 12:40:45;;;;;;;12.65;8.15;;;14.40;99.90;;;;;;5092880;28;20238;-75
2023/05/06 12:43:16;;;;;;;12.98;7.82;;;14.40;99.90;;;;;;5090602;28;20564;-74
2023/05/06 12:46:03;;;;;;;13.88;8.15;;;14.50;99.90;;;;;;5084035;28;20235;-74
2023/05/06 12:48:35;;;;;;;13.63;8.00;;;14.50;99.90;;;;;;5092092;28;20196;-74
2023/05/06 12:54:05;;;;;;;17.33;9.13;;;14.40;99.90;;;;;;5132594;27;20496;-74
2023/05/06 12:56:36;;;;;;;15.05;8.57;;;14.40;99.90;;;;;;5125453;28;20563;-74
2023/05/06 12:59:07;;;;;;;12.75;8.27;;;14.30;99.90;;;;;;5117844;28;20214;-74
2023/05/06 13:01:38;;;;;;;16.27;9.02;;;14.20;99.90;;;;;;5114075;28;20195;-75
2023/05/06 13:04:09;;;;;;;15.15;8.63;;;14.10;99.90;;;;;;5127249;27;20197;-75
2023/05/06 13:06:40;;;;;;;13.18;8.05;;;14.10;99.90;;;;;;5116652;27;20203;-75
2023/05/06 13:09:13;;;;;;;14.95;9.00;;;14.00;99.90;;;;;;5127504;27;20195;-76
2023/05/06 13:11:44;;;;;;;16.65;8.70;;;14.00;99.90;;;;;;5110486;28;20198;-75
2023/05/06 13:14:15;;;;;;;16.08;8.63;;;14.00;99.90;;;;;;5114527;28;20195;-75